Porthill, Idaho
Current Conditions -  °F | °C
As of 5:35 PM on Monday 20 Oct 2014 (Local Time) from K65S Reporting Station
Clear Clear  
Wind Chill: 59°   Ceiling: Unl
Heat Index: 59°   Visibility: 10mi
Dew Point: 46°   Wind: 0mph
Humidity: 63%   Direction: NA
Pressure: 29.73"   Gusts: NA
Location:  49°N, 116.5°W
Report Text: K65S 210035Z AUTO 00000KT 10SM CLR 15/08 A2973 RMK AO2
Loading
Personal Weather Stations






























Interactive Weather Map
Tropical Storm Tracking
New forecast layout! Learn more

10-Day Weather Forecast

Advertisements
Track Severe Weather on mobile